Terminal Aerodrome Forecast
Issued by NWS Lake Charles, LA

Home | Current Version | Previous Version | Text Only | Print | Product List | Glossary On
Versions: 1 2 3 4 5 6 7 8 9 10 11 12 13 14 15 16 17 18 19 20 21 22 23
000
FTUS44 KLCH 280852 AAA
TAFBPT
TAF AMD
KBPT 280852Z 2809/2906 15005KT P6SM SCT006 BKN015
      TEMPO 2810/2814 3SM BR BKN009
     FM281800 15012KT P6SM BKN050=

USA.gov is the U.S. government's official web portal to all federal, state and local government web resources and services.